Time;durP1;ratioP1;P1;durP2;ratioP2;P2;SDS_P1;SDS_P2;PMS_P1;PMS_P2;Temp;Humidity;BMP_temperature;BMP_pressure;BME280_temperature;BME280_humidity;BME280_pressure;Samples;Min_cycle;Max_cycle;Signal;HPM_P1;HPM_P2
2022/04/28 00:01:03;;;;;;;7.60;5.70;;;;;;;;;;5115588;28;20030;-88
2022/04/28 00:03:29;;;;;;;8.85;5.63;;;;;;;;;;5099838;28;20027;-87
2022/04/28 00:05:57;;;;;;;7.40;5.05;;;;;;;;;;5099703;28;20061;-88
2022/04/28 00:08:22;;;;;;;8.32;5.20;;;;;;;;;;5098872;28;20475;-88
2022/04/28 00:10:48;;;;;;;5.63;4.88;;;;;;;;;;5098604;28;20114;-89
2022/04/28 00:13:14;;;;;;;10.00;5.50;;;;;;;;;;5097218;28;20771;-86
2022/04/28 00:15:40;;;;;;;6.40;5.22;;;;;;;;;;5097137;28;20028;-87
2022/04/28 00:18:06;;;;;;;11.52;5.45;;;;;;;;;;5097350;28;20023;-87
2022/04/28 00:20:31;;;;;;;9.43;4.80;;;;;;;;;;5098448;28;20022;-87
2022/04/28 00:22:57;;;;;;;11.05;5.75;;;;;;;;;;5116138;28;20119;-87
2022/04/28 00:25:23;;;;;;;9.38;5.18;;;;;;;;;;5112938;28;20030;-87
2022/04/28 00:27:54;;;;;;;11.45;6.63;;;;;;;;;;5097736;28;20106;-88
2022/04/28 00:30:20;;;;;;;7.88;5.38;;;;;;;;;;5096903;28;20016;-87
2022/04/28 00:32:46;;;;;;;7.40;4.50;;;;;;;;;;5115897;28;20512;-88
2022/04/28 00:35:11;;;;;;;8.85;5.03;;;;;;;;;;5116264;28;20102;-88
2022/04/28 00:37:37;;;;;;;11.50;5.03;;;;;;;;;;5115268;28;20391;-89
2022/04/28 00:40:03;;;;;;;9.65;6.10;;;;;;;;;;5079515;28;20040;-90
2022/04/28 00:42:29;;;;;;;8.02;4.82;;;;;;;;;;5074481;28;20020;-91
2022/04/28 00:44:55;;;;;;;7.78;5.15;;;;;;;;;;5077954;28;20361;-86
2022/04/28 00:47:22;;;;;;;9.98;5.95;;;;;;;;;;5076684;28;20028;-87
2022/04/28 00:52:34;;;;;;;7.20;5.15;;;;;;;;;;5090813;28;20051;-86
2022/04/28 00:55:00;;;;;;;8.75;5.72;;;;;;;;;;5075640;28;20102;-89
2022/04/28 00:57:26;;;;;;;8.85;5.85;;;;;;;;;;5075346;28;20105;-88
2022/04/28 00:59:52;;;;;;;9.48;6.22;;;;;;;;;;5075657;28;20048;-87
2022/04/28 01:02:19;;;;;;;17.83;6.53;;;;;;;;;;5075620;28;20097;-87
2022/04/28 01:04:46;;;;;;;9.73;5.40;;;;;;;;;;5075104;28;20027;-89
2022/04/28 01:07:12;;;;;;;7.32;5.43;;;;;;;;;;5075302;28;20031;-87
2022/04/28 01:09:40;;;;;;;8.20;5.50;;;;;;;;;;5093304;28;20377;-89
2022/04/28 01:12:15;;;;;;;9.38;6.85;;;;;;;;;;5075415;28;20020;-89
2022/04/28 01:14:44;;;;;;;7.90;5.20;;;;;;;;;;5072590;28;20031;-88
2022/04/28 01:17:10;;;;;;;9.15;4.95;;;;;;;;;;5074835;28;20058;-87
2022/04/28 01:19:36;;;;;;;9.32;4.63;;;;;;;;;;5074998;28;20092;-90
2022/04/28 01:22:03;;;;;;;5.43;4.65;;;;;;;;;;5093194;28;20108;-89
2022/04/28 01:24:30;;;;;;;8.20;4.82;;;;;;;;;;5075213;28;20028;-89
2022/04/28 01:26:57;;;;;;;12.30;4.22;;;;;;;;;;5092865;28;20024;-88
2022/04/28 01:29:22;;;;;;;6.43;4.10;;;;;;;;;;5075157;28;20034;-88
2022/04/28 01:31:48;;;;;;;7.47;4.38;;;;;;;;;;5075534;28;20535;-88
2022/04/28 01:34:14;;;;;;;8.38;4.30;;;;;;;;;;5074803;28;20115;-88
2022/04/28 01:36:39;;;;;;;7.32;4.38;;;;;;;;;;5093001;28;20020;-89
2022/04/28 01:39:07;;;;;;;4.82;3.78;;;;;;;;;;5072854;28;20043;-89
2022/04/28 01:41:33;;;;;;;7.65;4.32;;;;;;;;;;5092901;28;20016;-86
2022/04/28 01:44:01;;;;;;;5.30;4.32;;;;;;;;;;5074474;28;20028;-86
2022/04/28 01:46:28;;;;;;;7.78;4.57;;;;;;;;;;5071217;28;20112;-85
2022/04/28 01:48:53;;;;;;;6.38;4.00;;;;;;;;;;5091792;28;20142;-90
2022/04/28 01:56:46;;;;;;;8.13;4.50;;;;;;;;;;5091260;28;20506;-87
2022/04/28 01:59:12;;;;;;;8.05;5.22;;;;;;;;;;5092739;28;20024;-88
2022/04/28 02:01:37;;;;;;;8.73;5.93;;;;;;;;;;5091310;28;20016;-87
2022/04/28 02:04:03;;;;;;;8.65;5.00;;;;;;;;;;5091222;28;20047;-87
2022/04/28 02:06:28;;;;;;;6.53;5.43;;;;;;;;;;5091141;28;20028;-84
2022/04/28 02:08:54;;;;;;;9.43;5.97;;;;;;;;;;5092543;28;20031;-87
2022/04/28 02:11:19;;;;;;;6.50;4.68;;;;;;;;;;5092319;28;20032;-87
2022/04/28 02:13:45;;;;;;;7.78;4.75;;;;;;;;;;5090798;28;20024;-87
2022/04/28 02:16:10;;;;;;;8.55;4.53;;;;;;;;;;5074210;28;20028;-88
2022/04/28 02:18:36;;;;;;;6.07;4.47;;;;;;;;;;5091026;28;20445;-87
2022/04/28 02:21:02;;;;;;;5.40;3.92;;;;;;;;;;5091930;28;20020;-88
2022/04/28 02:23:27;;;;;;;6.57;4.47;;;;;;;;;;5071881;28;20024;-88
2022/04/28 02:25:53;;;;;;;7.75;4.85;;;;;;;;;;5088769;28;20031;-87
2022/04/28 02:28:18;;;;;;;7.57;5.25;;;;;;;;;;5091647;28;20020;-87
2022/04/28 02:30:44;;;;;;;6.97;5.60;;;;;;;;;;5091270;28;20027;-87
2022/04/28 02:33:09;;;;;;;7.95;5.60;;;;;;;;;;5077498;28;20391;-87
2022/04/28 02:35:35;;;;;;;9.27;5.75;;;;;;;;;;5077725;28;20032;-88
2022/04/28 02:38:01;;;;;;;8.07;5.53;;;;;;;;;;5096905;28;20148;-86
2022/04/28 02:40:26;;;;;;;10.77;6.38;;;;;;;;;;5112141;27;20023;-87
2022/04/28 02:42:52;;;;;;;6.72;5.65;;;;;;;;;;5118658;27;20382;-87
2022/04/28 02:45:17;;;;;;;9.77;5.68;;;;;;;;;;5118440;27;20023;-87
2022/04/28 02:47:43;;;;;;;6.72;5.38;;;;;;;;;;5137084;27;20110;-87
2022/04/28 02:50:11;;;;;;;6.13;5.50;;;;;;;;;;5118377;27;20031;-87
2022/04/28 02:52:38;;;;;;;7.32;5.55;;;;;;;;;;5136876;27;20026;-87
2022/04/28 02:55:04;;;;;;;10.35;5.95;;;;;;;;;;5136921;27;20030;-87
2022/04/28 02:57:29;;;;;;;11.77;5.25;;;;;;;;;;5118228;27;20383;-87
2022/04/28 02:59:55;;;;;;;8.82;5.55;;;;;;;;;;5136959;27;20023;-87
2022/04/28 03:02:20;;;;;;;9.48;5.82;;;;;;;;;;5136744;27;20395;-86
2022/04/28 03:04:45;;;;;;;8.57;5.15;;;;;;;;;;5136873;27;20100;-87
2022/04/28 03:12:39;;;;;;;6.88;5.53;;;;;;;;;;5136929;27;20133;-86
2022/04/28 03:15:06;;;;;;;7.07;5.70;;;;;;;;;;5136720;27;20059;-86
2022/04/28 03:17:33;;;;;;;7.72;6.28;;;;;;;;;;5136549;27;20019;-86
2022/04/28 03:19:58;;;;;;;9.85;5.40;;;;;;;;;;5117749;27;20023;-86
2022/04/28 03:22:24;;;;;;;7.97;5.53;;;;;;;;;;5117846;27;20486;-87
2022/04/28 03:24:49;;;;;;;7.68;5.03;;;;;;;;;;5118069;27;20019;-87
2022/04/28 03:27:15;;;;;;;8.77;5.75;;;;;;;;;;5117894;27;20058;-86
2022/04/28 03:29:41;;;;;;;6.60;5.80;;;;;;;;;;5136134;27;20081;-86
2022/04/28 03:32:10;;;;;;;6.63;5.10;;;;;;;;;;5136155;27;20389;-86
2022/04/28 03:34:35;;;;;;;8.03;4.77;;;;;;;;;;5117452;27;20106;-87
2022/04/28 03:37:01;;;;;;;5.55;4.65;;;;;;;;;;5115569;27;20362;-85
2022/04/28 03:39:26;;;;;;;7.25;5.32;;;;;;;;;;5115356;27;20341;-85
2022/04/28 03:41:52;;;;;;;7.68;4.97;;;;;;;;;;5116094;27;20043;-85
2022/04/28 03:44:17;;;;;;;9.15;5.20;;;;;;;;;;5117470;27;20092;-85
2022/04/28 03:46:43;;;;;;;10.40;5.38;;;;;;;;;;5134208;27;20038;-85
2022/04/28 03:49:08;;;;;;;7.80;5.70;;;;;;;;;;5135928;27;20102;-85
2022/04/28 03:51:34;;;;;;;11.43;5.78;;;;;;;;;;5135528;27;20034;-86
2022/04/28 03:54:02;;;;;;;8.50;5.60;;;;;;;;;;5117197;27;20023;-86
2022/04/28 03:56:31;;;;;;;10.43;6.40;;;;;;;;;;5133168;27;20072;-84
2022/04/28 03:59:00;;;;;;;7.87;6.50;;;;;;;;;;5135640;27;20359;-88
2022/04/28 04:01:26;;;;;;;7.50;6.32;;;;;;;;;;5117109;27;20019;-88
2022/04/28 04:03:51;;;;;;;11.93;6.20;;;;;;;;;;5116789;27;20046;-87
2022/04/28 04:06:17;;;;;;;11.85;7.10;;;;;;;;;;5116862;27;20479;-85
2022/04/28 04:08:42;;;;;;;8.80;6.10;;;;;;;;;;5116833;27;20034;-85
2022/04/28 04:11:08;;;;;;;7.80;6.53;;;;;;;;;;5116858;27;20462;-85
2022/04/28 04:13:34;;;;;;;11.18;7.55;;;;;;;;;;5135191;27;20023;-83
2022/04/28 04:16:00;;;;;;;9.55;8.38;;;;;;;;;;5116932;27;20023;-86
2022/04/28 04:18:26;;;;;;;9.27;8.23;;;;;;;;;;5135088;27;20023;-85
2022/04/28 04:20:51;;;;;;;9.95;8.00;;;;;;;;;;5116943;27;20027;-87
2022/04/28 04:23:17;;;;;;;10.73;7.95;;;;;;;;;;5135101;27;20026;-86
2022/04/28 04:25:43;;;;;;;13.27;8.60;;;;;;;;;;5116589;27;20034;-88
2022/04/28 04:28:08;;;;;;;9.32;8.23;;;;;;;;;;5134959;27;20039;-85
2022/04/28 04:33:18;;;;;;;10.00;8.48;;;;;;;;;;5134260;27;20542;-85
2022/04/28 04:35:43;;;;;;;10.60;9.13;;;;;;;;;;5116190;27;20110;-85
2022/04/28 04:38:09;;;;;;;16.67;9.50;;;;;;;;;;5116135;27;20092;-87
2022/04/28 04:40:34;;;;;;;11.70;9.27;;;;;;;;;;5134847;27;20022;-86
2022/04/28 04:43:00;;;;;;;10.02;8.93;;;;;;;;;;5134830;27;20019;-86
2022/04/28 04:45:25;;;;;;;10.98;9.27;;;;;;;;;;5134296;27;20033;-88
2022/04/28 04:47:51;;;;;;;11.23;9.10;;;;;;;;;;5134606;27;20023;-86
2022/04/28 04:50:16;;;;;;;10.85;9.05;;;;;;;;;;5133471;27;20360;-87
2022/04/28 04:52:42;;;;;;;11.52;9.05;;;;;;;;;;5134205;27;20019;-86
2022/04/28 04:55:08;;;;;;;11.32;8.73;;;;;;;;;;5133463;27;20023;-89
2022/04/28 04:57:33;;;;;;;12.05;8.25;;;;;;;;;;5115861;27;20042;-87
2022/04/28 04:59:58;;;;;;;7.78;6.97;;;;;;;;;;5115810;27;20534;-86
2022/04/28 05:02:24;;;;;;;9.85;7.85;;;;;;;;;;5115973;27;20059;-86
2022/04/28 05:04:50;;;;;;;10.10;6.40;;;;;;;;;;5134358;27;20031;-87
2022/04/28 05:07:16;;;;;;;7.15;6.40;;;;;;;;;;5115773;27;20023;-86
2022/04/28 05:09:42;;;;;;;7.20;6.13;;;;;;;;;;5131443;27;20027;-86
2022/04/28 05:12:08;;;;;;;7.68;5.75;;;;;;;;;;5115745;27;20048;-84
2022/04/28 05:14:34;;;;;;;6.43;4.65;;;;;;;;;;5133141;27;20023;-87
2022/04/28 05:17:00;;;;;;;6.47;4.75;;;;;;;;;;5115012;27;20038;-87
2022/04/28 05:19:27;;;;;;;7.15;4.47;;;;;;;;;;5115716;27;20030;-85
2022/04/28 05:21:54;;;;;;;5.63;4.38;;;;;;;;;;5115586;27;20435;-87
2022/04/28 05:24:20;;;;;;;5.28;3.72;;;;;;;;;;5133894;27;20050;-87
2022/04/28 05:26:46;;;;;;;4.43;3.35;;;;;;;;;;5115661;27;20081;-86
2022/04/28 05:29:12;;;;;;;4.78;3.40;;;;;;;;;;5132862;27;20119;-86
2022/04/28 05:31:37;;;;;;;3.75;3.03;;;;;;;;;;5132428;27;20387;-86
2022/04/28 05:34:03;;;;;;;5.53;3.67;;;;;;;;;;5115411;27;20474;-80
2022/04/28 05:36:29;;;;;;;3.60;2.90;;;;;;;;;;5132339;27;20075;-82
2022/04/28 05:38:57;;;;;;;5.18;2.75;;;;;;;;;;5103779;28;20050;-86
2022/04/28 05:41:24;;;;;;;4.05;3.05;;;;;;;;;;5110863;28;20037;-82
2022/04/28 05:46:37;;;;;;;4.75;2.83;;;;;;;;;;5091436;28;20035;-85
2022/04/28 05:49:05;;;;;;;6.80;2.92;;;;;;;;;;5073817;28;20514;-82
2022/04/28 05:51:31;;;;;;;3.97;2.17;;;;;;;;;;5073017;28;20107;-82
2022/04/28 05:53:57;;;;;;;3.83;2.20;;;;;;;;;;5073654;28;20421;-85
2022/04/28 05:56:23;;;;;;;3.95;2.38;;;;;;;;;;5092089;28;20027;-84
2022/04/28 05:58:48;;;;;;;2.75;2.05;;;;;;;;;;5091642;28;20063;-85
2022/04/28 06:01:13;;;;;;;2.38;2.03;;;;;;;;;;5074067;28;20083;-84
2022/04/28 06:03:41;;;;;;;3.95;2.10;;;;;;;;;;5073930;28;20093;-85
2022/04/28 06:06:07;;;;;;;2.50;1.80;;;;;;;;;;5071368;28;20067;-89
2022/04/28 06:08:32;;;;;;;4.57;1.70;;;;;;;;;;5089904;28;20058;-85
2022/04/28 06:10:58;;;;;;;4.18;2.03;;;;;;;;;;5073922;28;20048;-84
2022/04/28 06:13:24;;;;;;;2.83;1.85;;;;;;;;;;5091646;28;20023;-85
2022/04/28 06:15:50;;;;;;;1.83;1.50;;;;;;;;;;5091123;28;20065;-89
2022/04/28 06:18:15;;;;;;;2.38;1.40;;;;;;;;;;5087876;28;20467;-86
2022/04/28 06:20:41;;;;;;;1.70;1.40;;;;;;;;;;5073589;28;20024;-84
2022/04/28 06:23:06;;;;;;;2.80;1.63;;;;;;;;;;5091365;28;20032;-82
2022/04/28 06:25:32;;;;;;;1.63;1.40;;;;;;;;;;5085647;28;20117;-83
2022/04/28 06:27:58;;;;;;;2.28;1.50;;;;;;;;;;5085498;28;20043;-85
2022/04/28 06:30:23;;;;;;;3.13;1.50;;;;;;;;;;5073846;28;20036;-87
2022/04/28 06:32:49;;;;;;;7.80;3.17;;;;;;;;;;5074028;28;20032;-89
2022/04/28 06:35:15;;;;;;;2.70;1.75;;;;;;;;;;5068430;28;20073;-85
2022/04/28 06:37:41;;;;;;;3.17;1.77;;;;;;;;;;5073790;28;20055;-85
2022/04/28 06:40:10;;;;;;;4.20;1.75;;;;;;;;;;5082837;28;20036;-84
2022/04/28 06:42:36;;;;;;;6.57;2.90;;;;;;;;;;5090676;28;20115;-84
2022/04/28 06:45:01;;;;;;;4.97;1.85;;;;;;;;;;5089875;28;20878;-84
2022/04/28 06:47:27;;;;;;;4.40;2.05;;;;;;;;;;5073546;28;20028;-85
2022/04/28 06:49:52;;;;;;;5.03;1.92;;;;;;;;;;5091359;28;20433;-86
2022/04/28 06:52:18;;;;;;;4.18;2.15;;;;;;;;;;5068521;28;20391;-86
2022/04/28 06:54:43;;;;;;;4.93;2.63;;;;;;;;;;5073183;28;20475;-85
2022/04/28 06:57:09;;;;;;;3.05;1.80;;;;;;;;;;5091176;28;20031;-85
2022/04/28 06:59:34;;;;;;;4.88;1.60;;;;;;;;;;5072013;28;20483;-83
2022/04/28 07:02:00;;;;;;;3.50;1.88;;;;;;;;;;5090373;28;20099;-88
2022/04/28 07:04:25;;;;;;;6.10;2.25;;;;;;;;;;5084849;28;20024;-85
2022/04/28 07:06:51;;;;;;;2.30;1.45;;;;;;;;;;5073288;28;20165;-84
2022/04/28 07:09:16;;;;;;;2.92;1.60;;;;;;;;;;5073024;28;20073;-84
2022/04/28 07:11:42;;;;;;;2.10;1.38;;;;;;;;;;5089437;28;20024;-89
2022/04/28 07:14:07;;;;;;;4.32;1.50;;;;;;;;;;5091165;28;20024;-85
2022/04/28 07:16:33;;;;;;;2.92;1.80;;;;;;;;;;5072827;28;20124;-83
2022/04/28 07:18:58;;;;;;;4.13;1.73;;;;;;;;;;5076782;28;20035;-85
2022/04/28 07:21:24;;;;;;;5.47;1.15;;;;;;;;;;5094864;28;20020;-86
2022/04/28 07:23:49;;;;;;;5.97;1.00;;;;;;;;;;5076430;28;20055;-89
2022/04/28 07:26:15;;;;;;;3.80;1.33;;;;;;;;;;5095005;28;20032;-86
2022/04/28 07:28:40;;;;;;;2.15;1.95;;;;;;;;;;5094998;28;20064;-87
2022/04/28 07:31:05;;;;;;;8.85;1.83;;;;;;;;;;5076831;28;20020;-85
2022/04/28 07:33:31;;;;;;;4.13;1.30;;;;;;;;;;5076410;28;20432;-88
2022/04/28 07:35:56;;;;;;;1.90;1.15;;;;;;;;;;5076731;28;20429;-85
2022/04/28 07:38:22;;;;;;;2.60;1.50;;;;;;;;;;5086673;28;20047;-88
2022/04/28 07:40:48;;;;;;;5.18;1.80;;;;;;;;;;5076442;28;20039;-87
2022/04/28 07:43:14;;;;;;;4.90;1.83;;;;;;;;;;5092922;28;20054;-85
2022/04/28 07:45:40;;;;;;;2.80;1.35;;;;;;;;;;5075921;28;20110;-85
2022/04/28 07:48:05;;;;;;;1.88;0.95;;;;;;;;;;5076807;28;20403;-87
2022/04/28 07:50:32;;;;;;;2.63;1.55;;;;;;;;;;5094870;28;20031;-87
2022/04/28 07:52:57;;;;;;;2.15;0.90;;;;;;;;;;5076629;28;20397;-88
2022/04/28 07:55:23;;;;;;;1.13;0.90;;;;;;;;;;5076683;28;20157;-91
2022/04/28 07:57:48;;;;;;;2.10;1.73;;;;;;;;;;5094896;28;20031;-89
2022/04/28 08:00:14;;;;;;;2.45;1.45;;;;;;;;;;5094517;28;20020;-89
2022/04/28 08:02:40;;;;;;;3.65;1.20;;;;;;;;;;5092962;28;20024;-86
2022/04/28 08:05:06;;;;;;;4.32;2.58;;;;;;;;;;5076008;28;20561;-86
2022/04/28 08:07:34;;;;;;;2.70;1.40;;;;;;;;;;5094533;28;20099;-88
2022/04/28 08:10:01;;;;;;;3.15;1.60;;;;;;;;;;5076429;28;20026;-85
2022/04/28 08:12:27;;;;;;;2.50;1.20;;;;;;;;;;5076378;28;20042;-90
2022/04/28 08:14:52;;;;;;;2.60;1.52;;;;;;;;;;5074630;28;20535;-88
2022/04/28 08:17:18;;;;;;;2.33;1.20;;;;;;;;;;5076276;28;20027;-88
2022/04/28 08:19:43;;;;;;;4.22;2.53;;;;;;;;;;5076185;28;20020;-87
2022/04/28 08:22:09;;;;;;;4.15;2.53;;;;;;;;;;5094200;28;20479;-86
2022/04/28 08:24:35;;;;;;;3.88;2.47;;;;;;;;;;5076405;28;20020;-86
2022/04/28 08:27:01;;;;;;;3.13;1.83;;;;;;;;;;5075750;28;20016;-85
2022/04/28 08:29:27;;;;;;;4.20;2.10;;;;;;;;;;5093003;28;20486;-86
2022/04/28 08:31:52;;;;;;;6.25;3.85;;;;;;;;;;5092911;28;20035;-87
2022/04/28 08:34:18;;;;;;;4.32;2.45;;;;;;;;;;5075852;28;20050;-86
2022/04/28 08:36:45;;;;;;;2.63;1.77;;;;;;;;;;5094328;28;20062;-87
2022/04/28 08:39:11;;;;;;;3.40;1.70;;;;;;;;;;5075762;28;20047;-86
2022/04/28 08:41:42;;;;;;;4.05;1.90;;;;;;;;;;5093990;28;20024;-87
2022/04/28 08:44:19;;;;;;;5.88;2.00;;;;;;;;;;5093119;28;20024;-85
2022/04/28 08:46:52;;;;;;;3.17;1.50;;;;;;;;;;5074279;28;20527;-85
2022/04/28 08:49:24;;;;;;;5.30;1.73;;;;;;;;;;5093978;28;20024;-86
2022/04/28 08:51:57;;;;;;;2.92;1.35;;;;;;;;;;5075270;28;20024;-85
2022/04/28 08:54:26;;;;;;;3.60;1.80;;;;;;;;;;5093752;28;20115;-87
2022/04/28 08:56:53;;;;;;;3.00;1.55;;;;;;;;;;5075711;28;20032;-87
2022/04/28 08:59:22;;;;;;;3.15;2.08;;;;;;;;;;5090960;28;20035;-87
2022/04/28 09:01:50;;;;;;;3.53;2.25;;;;;;;;;;5075735;28;20035;-89
2022/04/28 09:04:22;;;;;;;1.48;1.30;;;;;;;;;;5073110;28;20024;-87
2022/04/28 09:06:51;;;;;;;3.03;1.80;;;;;;;;;;5075217;28;20490;-88
2022/04/28 09:09:17;;;;;;;2.37;1.83;;;;;;;;;;5074547;28;20040;-85
2022/04/28 09:11:44;;;;;;;6.50;2.75;;;;;;;;;;5093322;28;20283;-85
2022/04/28 09:14:15;;;;;;;4.22;2.78;;;;;;;;;;5091866;28;20032;-86
2022/04/28 09:16:58;;;;;;;6.43;2.90;;;;;;;;;;5093329;28;20035;-85
2022/04/28 09:19:27;;;;;;;6.25;3.17;;;;;;;;;;5092239;28;20024;-87
2022/04/28 09:21:55;;;;;;;4.50;2.17;;;;;;;;;;5092189;28;20020;-87
2022/04/28 09:24:22;;;;;;;7.18;2.40;;;;;;;;;;5074750;28;20038;-86
2022/04/28 09:26:49;;;;;;;4.55;2.25;;;;;;;;;;5091828;28;20032;-87
2022/04/28 09:29:16;;;;;;;5.20;2.75;;;;;;;;;;5093041;28;20032;-87
2022/04/28 09:31:44;;;;;;;4.53;2.67;;;;;;;;;;5092429;28;20016;-88
2022/04/28 09:34:19;;;;;;;5.40;3.20;;;;;;;;;;5074592;28;20483;-88
2022/04/28 09:36:45;;;;;;;6.50;3.55;;;;;;;;;;5092790;28;20095;-87
2022/04/28 09:44:51;;;;;;;5.93;2.65;;;;;;;;;;5091330;28;20027;-88
2022/04/28 09:47:18;;;;;;;8.82;3.80;;;;;;;;;;5092832;28;20468;-88
2022/04/28 09:49:52;;;;;;;7.25;3.72;;;;;;;;;;5071797;28;20489;-86
2022/04/28 09:52:36;;;;;;;5.95;3.92;;;;;;;;;;5074308;28;20016;-84
2022/04/28 09:55:03;;;;;;;7.25;3.88;;;;;;;;;;5073302;28;20032;-84
2022/04/28 09:57:29;;;;;;;8.90;3.92;;;;;;;;;;5074220;28;20493;-84
2022/04/28 09:59:55;;;;;;;6.80;3.90;;;;;;;;;;5091520;28;20059;-83
2022/04/28 10:02:24;;;;;;;9.43;4.40;;;;;;;;;;5073830;28;20016;-84
2022/04/28 10:04:51;;;;;;;7.95;4.80;;;;;;;;;;5068492;28;20472;-85
2022/04/28 10:07:18;;;;;;;9.20;5.28;;;;;;;;;;5091839;28;20032;-84
2022/04/28 10:09:52;;;;;;;9.20;3.85;;;;;;;;;;5090827;28;20028;-85
2022/04/28 10:12:22;;;;;;;8.13;3.45;;;;;;;;;;5091553;28;20129;-86
2022/04/28 10:14:49;;;;;;;4.90;3.33;;;;;;;;;;5087790;28;20476;-81
2022/04/28 10:17:21;;;;;;;9.63;3.28;;;;;;;;;;5087337;28;20062;-83
2022/04/28 10:19:54;;;;;;;8.82;4.45;;;;;;;;;;5090936;28;20032;-84
2022/04/28 10:22:27;;;;;;;7.38;3.58;;;;;;;;;;5071815;28;20024;-83
2022/04/28 10:33:18;;;;;;;7.57;3.50;;;;;;;;;;5086186;28;20798;-84
2022/04/28 10:35:50;;;;;;;7.40;3.35;;;;;;;;;;5072165;28;20020;-83
2022/04/28 10:38:23;;;;;;;6.47;4.00;;;;;;;;;;5070522;28;20046;-84
2022/04/28 10:41:25;;;;;;;5.18;2.35;;;;;;;;;;5082395;28;20035;-81
2022/04/28 10:43:52;;;;;;;7.50;4.57;;;;;;;;;;5088095;28;20028;-83
2022/04/28 10:46:28;;;;;;;8.13;2.95;;;;;;;;;;5083624;28;20035;-82
2022/04/28 10:48:59;;;;;;;6.32;3.45;;;;;;;;;;5072866;28;20077;-83
2022/04/28 10:51:27;;;;;;;5.38;3.60;;;;;;;;;;5072141;28;20097;-84
2022/04/28 10:54:09;;;;;;;9.10;4.53;;;;;;;;;;5076630;28;20776;-83
2022/04/28 10:56:44;;;;;;;4.47;2.92;;;;;;;;;;5091797;28;20494;-84
2022/04/28 10:59:37;;;;;;;8.48;3.20;;;;;;;;;;5070191;28;20475;-83
2022/04/28 11:02:14;;;;;;;4.90;3.33;;;;;;;;;;5093743;28;20498;-84
2022/04/28 11:04:42;;;;;;;7.97;4.40;;;;;;;;;;5094746;28;20425;-84
2022/04/28 11:07:15;;;;;;;6.18;3.70;;;;;;;;;;5077063;28;20027;-82
2022/04/28 11:09:43;;;;;;;5.60;3.60;;;;;;;;;;5088311;28;20035;-83
2022/04/28 11:12:12;;;;;;;5.25;3.75;;;;;;;;;;5076869;28;20491;-84
2022/04/28 11:15:02;;;;;;;6.07;3.63;;;;;;;;;;5094247;28;20023;-82
2022/04/28 11:17:29;;;;;;;;;;;;;;;;;;5075925;28;20054;-85
2022/04/28 11:19:55;;;;;;;7.85;3.58;;;;;;;;;;5094719;28;19912;-84
2022/04/28 11:22:22;;;;;;;7.63;3.97;;;;;;;;;;5091715;28;20028;-84
2022/04/28 11:24:48;;;;;;;27.23;9.88;;;;;;;;;;5094522;28;20413;-84
2022/04/28 11:27:25;;;;;;;7.20;4.30;;;;;;;;;;5094558;28;20076;-84
2022/04/28 11:29:55;;;;;;;9.55;3.35;;;;;;;;;;5074124;28;20020;-83
2022/04/28 11:32:21;;;;;;;6.90;4.05;;;;;;;;;;5094552;28;21918;-84
2022/04/28 11:34:48;;;;;;;7.55;4.05;;;;;;;;;;5072392;28;20063;-83
2022/04/28 11:37:15;;;;;;;6.80;3.30;;;;;;;;;;5072893;28;20031;-83
2022/04/28 11:39:52;;;;;;;6.13;3.50;;;;;;;;;;5089562;28;20052;-84
2022/04/28 11:42:18;;;;;;;8.68;4.38;;;;;;;;;;5113006;28;20027;-83
2022/04/28 11:44:55;;;;;;;6.10;3.75;;;;;;;;;;5090374;28;20062;-82
2022/04/28 11:47:23;;;;;;;7.15;4.22;;;;;;;;;;5114666;28;20371;-84
2022/04/28 11:49:52;;;;;;;11.02;4.10;;;;;;;;;;5114755;28;20177;-83
2022/04/28 11:52:21;;;;;;;9.38;3.97;;;;;;;;;;5096026;28;20035;-83
2022/04/28 11:55:03;;;;;;;5.95;4.47;;;;;;;;;;5113253;28;20131;-85
2022/04/28 11:57:29;;;;;;;7.75;4.45;;;;;;;;;;5114474;28;20035;-83
2022/04/28 11:59:54;;;;;;;6.10;3.60;;;;;;;;;;5114325;28;20119;-82
2022/04/28 12:02:34;;;;;;;5.60;4.10;;;;;;;;;;5113102;28;20103;-84
2022/04/28 12:05:20;;;;;;;11.05;5.38;;;;;;;;;;5113945;28;20024;-84
2022/04/28 12:07:52;;;;;;;9.38;4.97;;;;;;;;;;5113091;28;20035;-86
2022/04/28 12:16:00;;;;;;;9.50;5.20;;;;;;;;;;5113787;28;20469;-82
2022/04/28 12:21:37;;;;;;;14.05;7.57;;;;;;;;;;5114634;28;20035;-83
2022/04/28 12:24:11;;;;;;;9.13;5.90;;;;;;;;;;5081730;28;20043;-84
2022/04/28 12:26:41;;;;;;;7.35;4.70;;;;;;;;;;5111711;28;20066;-84
2022/04/28 12:29:12;;;;;;;;;;;;;;;;;;5096248;28;20031;-85
2022/04/28 12:31:38;;;;;;;11.70;6.05;;;;;;;;;;5112607;28;20290;-83
2022/04/28 12:34:19;;;;;;;12.38;6.35;;;;;;;;;;5113170;28;20024;-84
2022/04/28 12:36:59;;;;;;;12.20;7.38;;;;;;;;;;5091969;28;20055;-84
2022/04/28 12:39:28;;;;;;;28.50;7.55;;;;;;;;;;5110607;28;20078;-83
2022/04/28 12:41:57;;;;;;;10.17;6.77;;;;;;;;;;5113843;28;20016;-84
2022/04/28 12:44:23;;;;;;;9.67;6.70;;;;;;;;;;5095505;28;20467;-84
2022/04/28 12:46:51;;;;;;;12.90;8.32;;;;;;;;;;5095155;28;20035;-84
2022/04/28 12:49:19;;;;;;;14.88;8.35;;;;;;;;;;5095359;28;20023;-83
2022/04/28 12:51:54;;;;;;;10.50;6.38;;;;;;;;;;5095105;28;20050;-84
2022/04/28 12:54:22;;;;;;;14.23;7.45;;;;;;;;;;5113672;28;20106;-85
2022/04/28 12:57:00;;;;;;;11.07;5.60;;;;;;;;;;5112236;28;20058;-83
2022/04/28 12:59:31;;;;;;;14.25;6.60;;;;;;;;;;5093482;28;20031;-84
2022/04/28 13:01:56;;;;;;;11.57;5.97;;;;;;;;;;5113223;28;20080;-84
2022/04/28 13:04:24;;;;;;;10.80;6.20;;;;;;;;;;5095057;28;20431;-84
2022/04/28 13:06:50;;;;;;;8.30;5.95;;;;;;;;;;5113251;28;20024;-82
2022/04/28 13:09:17;;;;;;;13.20;6.03;;;;;;;;;;5112741;28;20024;-84
2022/04/28 13:11:44;;;;;;;8.10;4.85;;;;;;;;;;5112871;28;20122;-83
2022/04/28 13:14:12;;;;;;;8.25;5.32;;;;;;;;;;5112955;28;20035;-83
2022/04/28 13:16:39;;;;;;;10.18;6.57;;;;;;;;;;5093835;28;20031;-83
2022/04/28 13:19:05;;;;;;;8.85;5.13;;;;;;;;;;5112148;28;20360;-84
2022/04/28 13:21:32;;;;;;;7.93;4.72;;;;;;;;;;5093607;28;20463;-83
2022/04/28 13:23:58;;;;;;;8.15;3.92;;;;;;;;;;5112660;28;20023;-83
2022/04/28 13:26:26;;;;;;;7.45;4.10;;;;;;;;;;5092885;28;20035;-83
2022/04/28 13:28:53;;;;;;;8.75;5.63;;;;;;;;;;5112876;28;20027;-84
2022/04/28 13:31:19;;;;;;;13.57;7.20;;;;;;;;;;5113078;28;20100;-82
2022/04/28 13:33:45;;;;;;;9.93;6.38;;;;;;;;;;5093282;28;20028;-83
2022/04/28 13:36:12;;;;;;;9.20;5.15;;;;;;;;;;5092781;28;20027;-82
2022/04/28 13:38:38;;;;;;;9.20;5.40;;;;;;;;;;5111934;28;20126;-83
2022/04/28 13:41:05;;;;;;;9.00;4.50;;;;;;;;;;5111678;28;20026;-84
2022/04/28 13:43:31;;;;;;;8.05;4.80;;;;;;;;;;5110341;28;20479;-86
2022/04/28 13:46:00;;;;;;;9.15;6.00;;;;;;;;;;5093685;28;20552;-84
2022/04/28 13:48:26;;;;;;;11.15;6.28;;;;;;;;;;5111222;28;20031;-85
2022/04/28 13:50:52;;;;;;;13.90;7.38;;;;;;;;;;5111771;28;20032;-83
2022/04/28 13:53:18;;;;;;;15.40;7.10;;;;;;;;;;5110670;28;20096;-84
2022/04/28 13:55:46;;;;;;;13.95;7.45;;;;;;;;;;5109816;28;20356;-86
2022/04/28 13:58:12;;;;;;;10.55;6.90;;;;;;;;;;5111021;28;20087;-83
2022/04/28 14:00:39;;;;;;;11.65;6.25;;;;;;;;;;5112019;28;20727;-83
2022/04/28 14:03:04;;;;;;;10.88;6.30;;;;;;;;;;5111820;28;20459;-85
2022/04/28 14:05:30;;;;;;;11.23;7.15;;;;;;;;;;5093200;28;20084;-84
2022/04/28 14:07:55;;;;;;;12.02;6.47;;;;;;;;;;5111713;28;20080;-86
2022/04/28 14:10:21;;;;;;;10.27;6.57;;;;;;;;;;5111544;28;20020;-82
2022/04/28 14:12:46;;;;;;;11.43;7.70;;;;;;;;;;5093656;28;20031;-84
2022/04/28 14:15:12;;;;;;;13.43;7.72;;;;;;;;;;5110798;28;20106;-86
2022/04/28 14:17:40;;;;;;;10.07;6.53;;;;;;;;;;5110621;28;20030;-80
2022/04/28 14:20:09;;;;;;;13.27;8.55;;;;;;;;;;5111336;28;20028;-85
2022/04/28 14:22:36;;;;;;;13.95;9.13;;;;;;;;;;5093399;28;20151;-84
2022/04/28 14:25:02;;;;;;;15.05;8.80;;;;;;;;;;5092370;28;20122;-85
2022/04/28 14:27:27;;;;;;;15.07;9.80;;;;;;;;;;5111466;28;20020;-84
2022/04/28 14:29:53;;;;;;;16.35;8.80;;;;;;;;;;5092921;28;20399;-83
2022/04/28 14:32:19;;;;;;;14.95;9.00;;;;;;;;;;5111152;28;20027;-83
2022/04/28 14:34:45;;;;;;;14.23;9.27;;;;;;;;;;5110643;28;20019;-84
2022/04/28 14:37:10;;;;;;;15.77;8.85;;;;;;;;;;5112894;28;20035;-84
2022/04/28 14:39:36;;;;;;;13.32;9.32;;;;;;;;;;5112013;28;20143;-83
2022/04/28 14:42:05;;;;;;;17.00;10.80;;;;;;;;;;5113521;28;20023;-84
2022/04/28 14:44:30;;;;;;;15.88;11.65;;;;;;;;;;5112182;28;20055;-81
2022/04/28 14:46:57;;;;;;;19.05;13.23;;;;;;;;;;5112978;28;20034;-83
2022/04/28 14:52:23;;;;;;;22.80;13.98;;;;;;;;;;5113429;28;20117;-85
2022/04/28 14:54:58;;;;;;;19.20;13.50;;;;;;;;;;5094348;28;20448;-84
2022/04/28 14:57:29;;;;;;;16.10;10.32;;;;;;;;;;5110768;28;20095;-85
2022/04/28 14:59:56;;;;;;;21.27;12.98;;;;;;;;;;5109806;28;20535;-85
2022/04/28 15:02:22;;;;;;;18.98;13.73;;;;;;;;;;5110115;28;20062;-83
2022/04/28 15:04:48;;;;;;;16.92;11.48;;;;;;;;;;5092799;28;20028;-83
2022/04/28 15:07:15;;;;;;;15.82;10.35;;;;;;;;;;5091045;28;20038;-84
2022/04/28 15:09:41;;;;;;;19.40;13.15;;;;;;;;;;5112039;28;20467;-84
2022/04/28 15:12:07;;;;;;;20.98;13.27;;;;;;;;;;5093232;28;20027;-84
2022/04/28 15:14:35;;;;;;;21.00;13.60;;;;;;;;;;5110395;28;20401;-83
2022/04/28 15:17:04;;;;;;;15.00;10.82;;;;;;;;;;5109353;28;20103;-84
2022/04/28 15:19:29;;;;;;;20.17;12.95;;;;;;;;;;5094093;28;20387;-85
2022/04/28 15:21:55;;;;;;;24.05;14.07;;;;;;;;;;5111176;28;20016;-85
2022/04/28 15:24:21;;;;;;;18.25;11.88;;;;;;;;;;5107570;28;20034;-83
2022/04/28 15:26:47;;;;;;;17.10;11.13;;;;;;;;;;5092288;28;20102;-86